Rechercher aéroport 
image banner adimage banner adimage banner ad
image banner ad

8C6 - Traer Muni

Situé à Traer, United States

ICAO - 8C6, IATA -

Données fournies par Airmate  

Information générale

Coordonnées: N42°12'3" W92°27'24"
Élévation : 892 feet MSL.
Variation magnétique : 03° East
Voir autres Aéroports à Iowa

Données opérationnelles

Special qualification required
Heure actuelle UTC:
Heure actuelle locale:
METAR: KVTI 231515Z AUTO 28004KT 10SM CLR 16/09 A3014 RMK AO2 T01610086
Voir NOTAMs / SUP AIP / TFR affectant cet aéroport [VIEW]
Fréquences de communication: [VIEW]

Pistes:

Identifiant RWYQFULongueur (ft)Largeur (ft)SurfaceLDA (ft)
17181°2555100GRASS
352555100GRASS

Coordonnées de l'aéroport

Adresse: Traer United States

Vue satellite de 8C6